Time;durP1;ratioP1;P1;durP2;ratioP2;P2;SDS_P1;SDS_P2;PMS_P1;PMS_P2;Temp;Humidity;BMP_temperature;BMP_pressure;BME280_temperature;BME280_humidity;BME280_pressure;Samples;Min_cycle;Max_cycle;Signal;HPM_P1;HPM_P2
2022/04/25 00:00:41;;;;;;;14.10;3.73;;;;;;;4.70;100.00;100608.00;5004527;28;20140;-72
2022/04/25 00:03:06;;;;;;;6.57;2.73;;;;;;;4.68;100.00;100612.59;5005616;28;20037;-72
2022/04/25 00:05:31;;;;;;;6.97;2.60;;;;;;;4.67;100.00;100631.25;5005908;28;20033;-74
2022/04/25 00:07:57;;;;;;;7.17;2.77;;;;;;;4.56;100.00;100627.66;5012693;28;20652;-74
2022/04/25 00:10:22;;;;;;;7.50;2.27;;;;;;;4.52;100.00;100646.56;5005900;28;20939;-73
2022/04/25 00:12:48;;;;;;;7.75;2.60;;;;;;;4.47;100.00;100667.25;5005499;28;20046;-74
2022/04/25 00:15:14;;;;;;;9.70;2.92;;;;;;;4.48;100.00;100668.94;5004555;28;20025;-73
2022/04/25 00:17:40;;;;;;;9.68;3.83;;;;;;;4.39;100.00;100676.63;5004065;28;20040;-73
2022/04/25 00:20:07;;;;;;;6.10;3.03;;;;;;;4.33;100.00;100679.78;5005622;28;20605;-72
2022/04/25 00:22:32;;;;;;;3.75;2.17;;;;;;;4.42;100.00;100691.41;4996198;28;20042;-73
2022/04/25 00:24:59;;;;;;;9.20;2.40;;;;;;;4.45;100.00;100683.25;5005629;28;20060;-75
2022/04/25 00:27:25;;;;;;;;;;;;;;;4.40;100.00;100680.97;5004753;28;20043;-74
2022/04/25 00:29:51;;;;;;;10.77;3.58;;;;;;;4.41;100.00;100681.81;5003895;28;20021;-74
2022/04/25 00:32:16;;;;;;;8.00;2.95;;;;;;;4.38;100.00;100682.91;5005378;28;20100;-74
2022/04/25 00:34:41;;;;;;;13.33;2.40;;;;;;;4.37;100.00;100673.28;5005637;28;20119;-73
2022/04/25 00:37:06;;;;;;;15.07;2.77;;;;;;;4.38;100.00;100676.78;5004279;28;20061;-73
2022/04/25 00:39:32;;;;;;;9.23;3.23;;;;;;;4.36;100.00;100662.84;5019121;23;20052;-76
2022/04/25 00:41:58;;;;;;;8.40;2.33;;;;;;;4.38;100.00;100666.22;5024153;28;20228;-76
2022/04/25 00:44:23;;;;;;;8.30;3.10;;;;;;;4.39;100.00;100663.41;5025489;28;20085;-76
2022/04/25 00:46:52;;;;;;;5.85;2.22;;;;;;;4.42;100.00;100657.91;5024755;28;20038;-76
2022/04/25 00:49:17;;;;;;;11.00;3.67;;;;;;;4.43;100.00;100664.03;5025866;28;20037;-76
2022/04/25 00:51:43;;;;;;;8.20;3.20;;;;;;;4.36;100.00;100654.91;5023976;28;20034;-76
2022/04/25 00:54:08;;;;;;;9.47;3.00;;;;;;;4.32;100.00;100661.41;5010102;28;20764;-76
2022/04/25 00:56:35;;;;;;;6.90;3.28;;;;;;;4.30;100.00;100658.88;5027433;28;20057;-76
2022/04/25 00:59:01;;;;;;;8.02;3.20;;;;;;;4.31;100.00;100665.84;5020459;28;20375;-76
2022/04/25 01:01:28;;;;;;;4.95;2.55;;;;;;;4.25;100.00;100665.50;5007620;28;20038;-76
2022/04/25 01:03:53;;;;;;;7.32;2.75;;;;;;;4.31;100.00;100672.94;5029009;28;20062;-75
2022/04/25 01:06:19;;;;;;;9.77;3.20;;;;;;;4.27;100.00;100672.34;5041358;28;20549;-76
2022/04/25 01:08:45;;;;;;;8.80;2.80;;;;;;;4.19;100.00;100678.25;5027346;28;20021;-75
2022/04/25 01:11:12;;;;;;;5.75;2.63;;;;;;;4.23;100.00;100684.13;5027028;28;20037;-75
2022/04/25 01:13:37;;;;;;;10.30;2.53;;;;;;;4.25;100.00;100694.59;5027337;28;20042;-75
2022/04/25 01:16:03;;;;;;;9.27;2.93;;;;;;;4.26;100.00;100693.59;5028624;28;20041;-75
2022/04/25 01:18:28;;;;;;;4.72;2.38;;;;;;;4.27;100.00;100690.00;5026596;28;20079;-75
2022/04/25 01:20:56;;;;;;;8.70;2.73;;;;;;;4.32;100.00;100703.69;5035305;28;21263;-75
2022/04/25 01:28:52;;;;;;;5.97;2.60;;;;;;;4.26;100.00;100698.88;5023218;28;20030;-76
2022/04/25 01:31:18;;;;;;;7.43;2.67;;;;;;;4.16;100.00;100693.50;5025800;28;20064;-76
2022/04/25 01:33:44;;;;;;;7.28;3.00;;;;;;;4.15;100.00;100703.25;5026057;28;20073;-76
2022/04/25 01:36:09;;;;;;;8.90;3.22;;;;;;;4.14;100.00;100703.34;5024406;28;20084;-76
2022/04/25 01:38:34;;;;;;;7.63;2.40;;;;;;;4.12;100.00;100698.22;5019078;28;20030;-75
2022/04/25 01:41:00;;;;;;;13.70;3.77;;;;;;;4.29;100.00;100711.88;5023427;28;20497;-76
2022/04/25 01:43:25;;;;;;;5.30;2.37;;;;;;;4.30;100.00;100710.91;5014219;28;20486;-76
2022/04/25 01:45:51;;;;;;;6.70;2.40;;;;;;;4.17;100.00;100697.84;5027593;28;20033;-76
2022/04/25 01:48:16;;;;;;;8.97;3.03;;;;;;;4.17;100.00;100708.41;5027627;28;20060;-75
2022/04/25 01:50:42;;;;;;;8.60;3.23;;;;;;;4.13;100.00;100704.31;5023874;28;20272;-76
2022/04/25 01:53:07;;;;;;;14.60;3.58;;;;;;;4.09;100.00;100709.00;5027156;28;20941;-76
2022/04/25 01:55:33;;;;;;;6.30;2.73;;;;;;;4.09;100.00;100713.44;5012965;28;20048;-76
2022/04/25 01:57:58;;;;;;;5.50;2.47;;;;;;;4.04;100.00;100708.53;5009130;28;20045;-75
2022/04/25 02:00:23;;;;;;;6.53;2.80;;;;;;;4.05;100.00;100710.22;5009302;28;20022;-76
2022/04/25 02:02:49;;;;;;;5.57;2.47;;;;;;;4.01;100.00;100712.25;5025756;28;20037;-76
2022/04/25 02:05:14;;;;;;;7.30;3.50;;;;;;;4.12;100.00;100708.78;5025600;28;20347;-75
2022/04/25 02:07:40;;;;;;;4.70;2.17;;;;;;;4.12;100.00;100711.41;5009321;28;20087;-76
2022/04/25 02:10:05;;;;;;;8.27;2.70;;;;;;;4.06;100.00;100703.97;5026849;28;20027;-76
2022/04/25 02:12:31;;;;;;;5.45;2.65;;;;;;;4.07;100.00;100699.50;5026766;28;20041;-76
2022/04/25 02:14:56;;;;;;;5.77;3.10;;;;;;;4.06;100.00;100708.41;5025681;28;20076;-76
2022/04/25 02:17:22;;;;;;;7.53;2.77;;;;;;;4.01;100.00;100706.13;5013377;28;20492;-76
2022/04/25 02:19:47;;;;;;;6.23;2.17;;;;;;;4.03;100.00;100714.78;5015063;28;20026;-76
2022/04/25 02:22:13;;;;;;;9.70;2.63;;;;;;;3.96;100.00;100718.88;5025494;28;20041;-76
2022/04/25 02:24:39;;;;;;;7.22;2.67;;;;;;;3.94;100.00;100716.34;5026820;28;20033;-75
2022/04/25 02:27:06;;;;;;;8.75;2.47;;;;;;;3.92;100.00;100720.06;5025435;28;20490;-76
2022/04/25 02:29:39;;;;;;;7.70;2.70;;;;;;;3.84;100.00;100720.69;5021930;28;20487;-76
2022/04/25 02:32:05;;;;;;;12.07;5.38;;;;;;;3.86;100.00;100724.00;5007009;28;20402;-76
2022/04/25 02:34:33;;;;;;;11.10;3.45;;;;;;;3.77;100.00;100719.47;5026581;28;20025;-76
2022/04/25 02:36:59;;;;;;;7.88;2.95;;;;;;;3.81;100.00;100720.91;5026471;28;20494;-76
2022/04/25 02:39:25;;;;;;;5.35;2.58;;;;;;;3.73;100.00;100724.13;5024641;28;20036;-76
2022/04/25 02:41:51;;;;;;;6.80;3.00;;;;;;;3.72;100.00;100729.53;5023843;28;20112;-75
2022/04/25 02:44:17;;;;;;;10.85;2.58;;;;;;;3.68;100.00;100734.22;5025155;28;20026;-76
2022/04/25 02:46:43;;;;;;;6.05;2.53;;;;;;;3.73;100.00;100734.69;5022598;28;20038;-76
2022/04/25 02:49:08;;;;;;;6.07;3.05;;;;;;;3.73;100.00;100734.69;5026146;28;20091;-76
2022/04/25 02:51:34;;;;;;;10.60;3.33;;;;;;;3.76;100.00;100738.91;5021603;28;20085;-76
2022/04/25 02:53:59;;;;;;;7.50;3.05;;;;;;;3.65;100.00;100731.78;5023962;28;20041;-76
2022/04/25 02:56:24;;;;;;;6.50;2.70;;;;;;;3.57;100.00;100726.28;5021681;28;20029;-76
2022/04/25 02:58:50;;;;;;;8.47;3.27;;;;;;;3.47;100.00;100726.16;5024886;28;20017;-75
2022/04/25 03:01:15;;;;;;;6.43;2.73;;;;;;;3.43;100.00;100732.59;5024425;28;20050;-76
2022/04/25 03:03:40;;;;;;;7.57;2.90;;;;;;;3.40;100.00;100737.31;5025917;28;20026;-75
2022/04/25 03:06:09;;;;;;;7.63;2.80;;;;;;;3.44;100.00;100744.00;5005073;28;20339;-76
2022/04/25 03:08:35;;;;;;;6.30;2.95;;;;;;;3.47;100.00;100749.06;5022363;28;20036;-75
2022/04/25 03:11:04;;;;;;;6.75;3.88;;;;;;;3.40;100.00;100747.84;5023651;28;20037;-75
2022/04/25 03:13:30;;;;;;;8.57;3.38;;;;;;;3.31;100.00;100750.22;5021453;28;20224;-75
2022/04/25 03:15:56;;;;;;;12.32;3.63;;;;;;;3.22;100.00;100740.34;5025329;28;20029;-75
2022/04/25 03:18:22;;;;;;;12.67;3.67;;;;;;;3.21;100.00;100743.97;5007482;28;20512;-75
2022/04/25 03:20:50;;;;;;;9.45;3.38;;;;;;;3.21;100.00;100753.66;5025860;28;20048;-75
2022/04/25 03:23:17;;;;;;;7.00;2.95;;;;;;;3.18;100.00;100752.09;5025700;28;20473;-75
2022/04/25 03:25:44;;;;;;;7.57;3.25;;;;;;;3.13;100.00;100755.06;5025586;28;20045;-75
2022/04/25 03:28:10;;;;;;;8.45;3.15;;;;;;;3.10;100.00;100750.03;5024305;28;20049;-75
2022/04/25 03:30:35;;;;;;;7.25;3.53;;;;;;;3.11;100.00;100761.41;5021187;28;20482;-75
2022/04/25 03:33:01;;;;;;;10.30;3.22;;;;;;;3.02;100.00;100759.44;5024136;28;20571;-75
2022/04/25 03:35:27;;;;;;;9.02;3.33;;;;;;;2.98;100.00;100763.28;5020683;28;20092;-75
2022/04/25 03:37:53;;;;;;;10.85;3.45;;;;;;;2.90;100.00;100766.47;5006299;28;20037;-75
2022/04/25 03:40:19;;;;;;;10.45;3.17;;;;;;;2.85;100.00;100774.72;5020638;28;20545;-76
2022/04/25 03:42:45;;;;;;;8.30;3.80;;;;;;;2.82;100.00;100772.31;5005418;28;20424;-75
2022/04/25 03:45:15;;;;;;;5.78;3.42;;;;;;;2.80;100.00;100771.59;5024261;28;20831;-75
2022/04/25 03:47:41;;;;;;;8.98;3.35;;;;;;;2.81;100.00;100770.66;5021394;28;20042;-75
2022/04/25 03:50:08;;;;;;;8.30;3.67;;;;;;;2.84;100.00;100783.59;5023981;28;20032;-75
2022/04/25 03:52:38;;;;;;;10.20;3.83;;;;;;;2.88;100.00;100779.78;5024811;28;20171;-75
2022/04/25 03:57:53;;;;;;;7.07;3.30;;;;;;;2.91;100.00;100784.84;5022000;28;20080;-75
2022/04/25 04:00:19;;;;;;;11.68;3.60;;;;;;;2.91;100.00;100795.38;5020560;28;20041;-75
2022/04/25 04:02:44;;;;;;;10.57;3.58;;;;;;;2.89;100.00;100775.34;5021741;28;20051;-75
2022/04/25 04:05:11;;;;;;;12.35;4.63;;;;;;;2.95;100.00;100782.81;5007578;28;20029;-75
2022/04/25 04:07:36;;;;;;;;;;;;;;;3.01;100.00;100789.44;5021255;28;20038;-75
2022/04/25 04:10:01;;;;;;;;;;;;;;;2.98;100.00;100785.22;5025617;28;19920;-75
2022/04/25 04:12:32;;;;;;;8.93;3.70;;;;;;;2.94;100.00;100781.13;5024321;28;19924;-75
2022/04/25 04:14:58;;;;;;;7.45;3.85;;;;;;;2.93;100.00;100779.47;5023451;28;20029;-75
2022/04/25 04:17:24;;;;;;;9.55;3.88;;;;;;;2.92;100.00;100786.50;5025292;28;20598;-75
2022/04/25 04:19:53;;;;;;;;;;;;;;;2.93;100.00;100784.72;5024787;28;20479;-75
2022/04/25 04:22:20;;;;;;;6.82;3.85;;;;;;;2.92;100.00;100783.03;5022116;28;20297;-75
2022/04/25 04:24:46;;;;;;;9.13;3.88;;;;;;;2.92;100.00;100781.22;5028134;28;20037;-75
2022/04/25 04:27:13;;;;;;;13.63;4.40;;;;;;;2.93;100.00;100788.19;5011841;28;20026;-75
2022/04/25 04:29:40;;;;;;;9.35;4.60;;;;;;;2.99;100.00;100780.78;5026237;28;20116;-75
2022/04/25 04:32:06;;;;;;;8.73;3.92;;;;;;;3.02;100.00;100791.09;5029028;28;20033;-75
2022/04/25 04:34:32;;;;;;;11.40;3.97;;;;;;;3.05;100.00;100785.63;5011490;28;20132;-75
2022/04/25 04:36:59;;;;;;;19.35;5.15;;;;;;;3.08;100.00;100788.03;5027580;28;20061;-74
2022/04/25 04:39:24;;;;;;;8.27;4.18;;;;;;;3.14;100.00;100793.69;5028565;28;20521;-75
2022/04/25 04:41:50;;;;;;;8.55;3.85;;;;;;;3.22;100.00;100798.41;5027456;28;20033;-75
2022/04/25 04:44:15;;;;;;;11.65;4.53;;;;;;;3.23;100.00;100797.47;5028996;28;20120;-75
2022/04/25 04:46:41;;;;;;;7.13;3.73;;;;;;;3.27;100.00;100808.63;5027848;28;20028;-75
2022/04/25 04:49:06;;;;;;;7.97;3.88;;;;;;;3.31;100.00;100808.28;5028978;28;20029;-74
2022/04/25 04:51:32;;;;;;;9.23;5.00;;;;;;;3.36;100.00;100806.13;5027478;28;20022;-74
2022/04/25 04:54:01;;;;;;;11.48;4.53;;;;;;;3.44;100.00;100817.91;5027435;28;20810;-74
2022/04/25 04:56:27;;;;;;;7.65;3.92;;;;;;;3.54;100.00;100813.63;5027566;28;20026;-75
2022/04/25 04:58:53;;;;;;;13.73;4.13;;;;;;;3.61;100.00;100811.38;5028079;28;20036;-75
2022/04/25 05:01:19;;;;;;;19.55;7.78;;;;;;;3.74;100.00;100805.03;5026869;28;20478;-75
2022/04/25 05:03:45;;;;;;;20.08;7.45;;;;;;;3.80;100.00;100807.22;5028188;28;20033;-75
2022/04/25 05:06:10;;;;;;;12.30;3.90;;;;;;;3.93;100.00;100803.63;5010318;28;20032;-75
2022/04/25 05:08:36;;;;;;;9.55;4.13;;;;;;;4.34;100.00;100810.97;5026971;28;20107;-75
2022/04/25 05:11:02;;;;;;;11.13;3.77;;;;;;;5.13;100.00;100804.69;5028467;28;20486;-76
2022/04/25 05:13:28;;;;;;;9.35;3.40;;;;;;;6.00;100.00;100793.91;5027122;28;20036;-74
2022/04/25 05:15:53;;;;;;;6.43;3.38;;;;;;;6.66;100.00;100764.28;5010913;28;20386;-75
2022/04/25 05:18:19;;;;;;;10.43;4.53;;;;;;;6.89;100.00;100701.19;5019002;28;20132;-75
2022/04/25 05:20:45;;;;;;;4.70;2.78;;;;;;;7.61;100.00;100682.06;5026967;28;20071;-76
2022/04/25 05:23:10;;;;;;;6.13;3.10;;;;;;;8.14;100.00;100629.22;5026947;28;20440;-76
2022/04/25 05:25:38;;;;;;;11.20;2.70;;;;;;;8.61;100.00;100568.66;5035585;28;20096;-75
2022/04/25 05:28:05;;;;;;;6.80;2.85;;;;;;;8.88;99.04;100514.47;5026817;28;20037;-75
2022/04/25 05:30:31;;;;;;;7.78;3.70;;;;;;;9.31;93.60;100485.22;5026807;28;20021;-75
2022/04/25 05:32:58;;;;;;;5.78;3.40;;;;;;;9.50;88.65;100441.47;5026553;28;20080;-75
2022/04/25 05:35:31;;;;;;;7.00;2.85;;;;;;;10.35;82.84;100403.91;5028169;28;20063;-75
2022/04/25 05:37:57;;;;;;;6.97;2.88;;;;;;;10.07;81.39;100385.53;5027736;28;20099;-75
2022/04/25 05:40:23;;;;;;;6.97;3.33;;;;;;;10.28;79.58;100381.53;5005632;28;20026;-76
2022/04/25 05:42:50;;;;;;;4.55;2.35;;;;;;;10.60;76.97;100369.94;5022708;28;20052;-76
2022/04/25 05:45:18;;;;;;;5.28;2.72;;;;;;;10.75;75.97;100380.75;5027353;28;20036;-76
2022/04/25 05:47:44;;;;;;;8.30;2.22;;;;;;;10.76;74.53;100366.41;5022748;28;20316;-76
2022/04/25 05:52:56;;;;;;;6.20;2.38;;;;;;;10.80;72.02;100318.84;5027094;28;20684;-76
2022/04/25 05:55:22;;;;;;;6.05;2.63;;;;;;;11.09;72.54;100390.28;5008898;28;20386;-76
2022/04/25 05:57:47;;;;;;;4.93;2.67;;;;;;;11.43;71.38;100397.97;5024628;28;20450;-76
2022/04/25 06:00:14;;;;;;;8.57;2.58;;;;;;;11.51;70.16;100356.97;5005855;28;20029;-76
2022/04/25 06:02:42;;;;;;;5.68;2.80;;;;;;;11.43;68.85;100306.25;5020651;28;20048;-76
2022/04/25 06:05:10;;;;;;;5.18;2.63;;;;;;;11.67;70.00;100388.13;5025864;28;20719;-76
2022/04/25 06:07:36;;;;;;;3.67;2.40;;;;;;;12.07;68.51;100400.34;5026846;28;20095;-76
2022/04/25 06:10:03;;;;;;;3.10;2.42;;;;;;;12.13;67.96;100378.22;5025187;28;20021;-76
2022/04/25 06:12:29;;;;;;;7.10;2.65;;;;;;;12.16;67.53;100372.50;5008704;28;20046;-76
2022/04/25 06:14:55;;;;;;;7.07;2.47;;;;;;;12.17;66.72;100374.16;5026770;28;20103;-76
2022/04/25 06:17:21;;;;;;;3.15;2.30;;;;;;;11.93;66.23;100318.22;5026915;28;20034;-76
2022/04/25 06:19:46;;;;;;;4.50;2.33;;;;;;;11.89;67.20;100373.91;5026489;28;20079;-76
2022/04/25 06:22:12;;;;;;;5.00;2.40;;;;;;;11.99;67.41;100408.47;5025049;28;20516;-76
2022/04/25 06:24:38;;;;;;;4.27;2.37;;;;;;;12.23;66.50;100416.25;5022062;28;20555;-76
2022/04/25 06:27:05;;;;;;;2.47;1.75;;;;;;;12.54;64.85;100409.94;5025457;28;20110;-74
2022/04/25 06:29:31;;;;;;;5.53;2.20;;;;;;;12.65;62.61;100318.44;5026707;28;20017;-74
2022/04/25 06:31:56;;;;;;;2.47;1.85;;;;;;;12.38;62.79;100303.03;5026741;28;20455;-74
2022/04/25 06:34:22;;;;;;;4.93;2.50;;;;;;;12.65;62.19;100325.63;5025299;28;20420;-74
2022/04/25 06:36:50;;;;;;;5.45;2.30;;;;;;;12.50;61.82;100296.19;5026106;28;20037;-74
2022/04/25 06:39:18;;;;;;;6.40;2.63;;;;;;;11.65;64.07;100320.59;5023850;28;20032;-72
2022/04/25 06:41:43;;;;;;;5.18;2.00;;;;;;;11.94;64.69;100389.41;5023902;28;20068;-75
2022/04/25 06:44:09;;;;;;;3.47;2.17;;;;;;;12.12;63.77;100376.56;5025000;28;20475;-74
2022/04/25 06:46:34;;;;;;;3.67;2.13;;;;;;;11.68;64.35;100342.47;5026109;28;20033;-75
2022/04/25 06:51:43;;;;;;;3.53;1.83;;;;;;;12.48;62.75;100407.16;5025711;28;20116;-75
2022/04/25 06:54:09;;;;;;;2.57;1.83;;;;;;;12.79;62.24;100426.59;5025622;28;20105;-74
2022/04/25 06:56:35;;;;;;;5.17;1.90;;;;;;;13.06;60.66;100379.53;5025457;28;20038;-76
2022/04/25 06:59:00;;;;;;;4.93;1.92;;;;;;;13.29;59.54;100365.19;5024686;28;20087;-73
2022/04/25 07:01:26;;;;;;;6.67;2.20;;;;;;;13.67;60.04;100418.59;5024714;28;20096;-75
2022/04/25 07:03:51;;;;;;;2.83;1.60;;;;;;;13.54;59.53;100388.97;5008308;28;20037;-73
2022/04/25 07:06:16;;;;;;;4.03;2.27;;;;;;;13.01;59.56;100300.72;5025528;28;20028;-73
2022/04/25 07:08:42;;;;;;;4.80;2.47;;;;;;;12.65;59.76;100267.53;5021867;28;20878;-73
2022/04/25 07:11:07;;;;;;;4.17;1.80;;;;;;;12.32;59.16;100173.44;5024218;28;20545;-75
2022/04/25 07:13:33;;;;;;;2.67;1.77;;;;;;;12.78;60.69;100368.69;5012253;28;20037;-76
2022/04/25 07:15:59;;;;;;;3.15;1.70;;;;;;;13.19;59.92;100368.13;5026083;28;20037;-75
2022/04/25 07:18:24;;;;;;;2.87;2.20;;;;;;;12.88;58.67;100247.81;5020771;28;20384;-73
2022/04/25 07:20:49;;;;;;;6.40;2.58;;;;;;;12.42;60.03;100285.59;5006969;28;20071;-73
2022/04/25 07:28:49;;;;;;;3.28;2.08;;;;;;;12.79;59.08;100319.44;5011935;28;20041;-75
2022/04/25 07:31:18;;;;;;;3.63;2.10;;;;;;;12.68;60.04;100352.88;4992434;28;20041;-75
2022/04/25 07:33:45;;;;;;;3.58;2.15;;;;;;;13.03;59.32;100371.84;5015094;28;20478;-73
2022/04/25 07:36:11;;;;;;;6.63;2.70;;;;;;;12.83;59.31;100338.63;5023632;28;20164;-73
2022/04/25 07:38:39;;;;;;;;;;;;;;;13.27;60.08;100448.50;5021153;28;20518;-75
2022/04/25 07:41:05;;;;;;;4.25;2.45;;;;;;;13.25;58.66;100363.84;5023710;28;20002;-74
2022/04/25 07:43:30;;;;;;;4.30;2.57;;;;;;;13.16;59.39;100399.81;5007812;28;20060;-74
2022/04/25 07:45:56;;;;;;;4.13;2.73;;;;;;;12.15;58.63;100186.22;5022845;28;20064;-74
2022/04/25 07:48:21;;;;;;;3.95;2.58;;;;;;;12.70;60.02;100370.63;5023838;28;20475;-74
2022/04/25 07:50:47;;;;;;;2.50;2.30;;;;;;;12.60;58.70;100283.34;5021294;28;20462;-73
2022/04/25 07:53:13;;;;;;;4.63;2.55;;;;;;;12.83;59.91;100389.53;5024728;28;20127;-77
2022/04/25 07:55:39;;;;;;;7.00;2.40;;;;;;;13.19;58.70;100388.75;5023574;28;20048;-74
2022/04/25 07:58:04;;;;;;;3.23;2.30;;;;;;;13.21;58.49;100359.91;5023780;28;20128;-75
2022/04/25 08:00:29;;;;;;;6.90;2.73;;;;;;;12.57;58.94;100299.81;5020322;28;20076;-75
2022/04/25 08:02:55;;;;;;;4.93;2.00;;;;;;;12.86;59.29;100390.00;5022993;28;20079;-74
2022/04/25 08:05:21;;;;;;;3.07;2.37;;;;;;;13.20;58.72;100401.13;5020519;28;20030;-74
2022/04/25 08:07:46;;;;;;;9.25;2.65;;;;;;;12.94;57.49;100279.19;5023306;28;20040;-75
2022/04/25 08:10:11;;;;;;;6.23;2.87;;;;;;;13.56;57.40;100392.28;5023621;28;20073;-73
2022/04/25 08:18:06;;;;;;;3.15;2.38;;;;;;;14.31;55.64;100389.03;5017694;28;20033;-73
2022/04/25 08:20:36;;;;;;;4.70;2.65;;;;;;;14.56;54.75;100357.19;5023689;28;20032;-74
2022/04/25 08:23:10;;;;;;;5.30;2.55;;;;;;;14.21;55.53;100350.97;5038045;28;20033;-74
2022/04/25 08:25:36;;;;;;;3.38;2.30;;;;;;;13.57;54.30;100184.75;5020349;28;20601;-74
2022/04/25 08:28:05;;;;;;;4.22;2.75;;;;;;;14.23;54.01;100305.91;5023543;28;20029;-74
2022/04/25 08:30:30;;;;;;;5.85;2.72;;;;;;;14.21;53.63;100253.44;5020045;28;20176;-75
2022/04/25 08:32:56;;;;;;;4.77;2.23;;;;;;;15.25;53.68;100449.53;5024093;28;20101;-74
2022/04/25 08:35:22;;;;;;;4.63;2.38;;;;;;;14.99;52.67;100340.03;5025148;28;20033;-74
2022/04/25 08:37:48;;;;;;;5.68;3.00;;;;;;;15.07;53.55;100382.03;5025311;28;20069;-75
2022/04/25 08:40:13;;;;;;;4.13;2.17;;;;;;;15.17;53.14;100379.78;5023038;28;20092;-74
2022/04/25 08:42:39;;;;;;;5.85;3.03;;;;;;;15.23;54.44;100446.22;5019705;28;20038;-75
2022/04/25 08:45:06;;;;;;;2.42;2.22;;;;;;;15.30;53.69;100419.34;5023255;28;20040;-76
2022/04/25 08:47:36;;;;;;;9.02;2.97;;;;;;;15.15;53.88;100406.06;5022147;28;20029;-74
2022/04/25 08:50:02;;;;;;;3.92;2.55;;;;;;;15.56;51.79;100360.22;5020993;28;20068;-74
2022/04/25 08:52:29;;;;;;;4.90;2.47;;;;;;;15.83;51.83;100379.97;5005481;28;20053;-75
2022/04/25 08:54:57;;;;;;;;;;;;;;;16.63;51.05;100468.03;5022903;28;20041;-75
2022/04/25 08:57:28;;;;;;;4.68;2.95;;;;;;;16.73;50.21;100436.06;5023637;28;20259;-76
2022/04/25 08:59:56;;;;;;;4.38;2.60;;;;;;;17.37;48.28;100399.38;5006530;28;20029;-74
2022/04/25 09:02:22;;;;;;;6.65;2.70;;;;;;;16.36;48.34;100206.69;5026811;28;20080;-74
2022/04/25 09:04:50;;;;;;;3.30;2.45;;;;;;;16.70;49.72;100371.81;5024660;28;20029;-77
2022/04/25 09:07:19;;;;;;;3.75;2.90;;;;;;;16.79;49.37;100365.16;5028146;28;20060;-75
2022/04/25 09:09:44;;;;;;;6.40;2.70;;;;;;;16.60;48.63;100242.88;5009955;28;20483;-75
2022/04/25 09:12:12;;;;;;;3.95;2.80;;;;;;;16.12;49.81;100259.41;5021936;28;20076;-75
2022/04/25 09:14:40;;;;;;;3.58;2.97;;;;;;;13.97;50.52;99940.78;5023810;28;20060;-76
2022/04/25 09:17:06;;;;;;;4.63;2.53;;;;;;;15.09;52.71;100332.41;5027853;28;20025;-74
2022/04/25 09:19:33;;;;;;;;;;;;;;;16.18;50.70;100395.09;5030614;28;20550;-75
2022/04/25 09:21:58;;;;;;;4.65;3.20;;;;;;;16.45;49.35;100337.44;5026145;28;19921;-75
2022/04/25 09:24:34;;;;;;;5.93;2.70;;;;;;;16.55;49.83;100379.28;5027105;28;20041;-75
2022/04/25 09:27:14;;;;;;;4.35;3.22;;;;;;;16.78;49.39;100358.06;5001814;28;20465;-75
2022/04/25 09:29:40;;;;;;;3.90;3.13;;;;;;;17.20;48.26;100377.44;5026280;28;20443;-75
2022/04/25 09:32:09;;;;;;;7.22;2.80;;;;;;;17.14;48.94;100385.56;5027378;28;20031;-74
2022/04/25 09:37:38;;;;;;;8.10;3.40;;;;;;;16.89;47.79;100275.75;5022268;28;20371;-75
2022/04/25 09:40:03;;;;;;;3.47;2.72;;;;;;;17.37;46.09;100242.88;5025039;28;20307;-75
2022/04/25 09:42:30;;;;;;;3.38;2.78;;;;;;;18.02;45.21;100317.31;5011871;28;20045;-74
2022/04/25 09:44:57;;;;;;;8.00;2.97;;;;;;;17.82;46.76;100331.00;5013146;28;20482;-75
2022/04/25 09:47:30;;;;;;;4.38;2.70;;;;;;;17.60;47.37;100301.63;5017877;28;20418;-77
2022/04/25 09:50:05;;;;;;;3.05;2.45;;;;;;;17.60;47.00;100300.81;5022480;28;20121;-75
2022/04/25 09:52:32;;;;;;;4.20;2.58;;;;;;;17.95;46.38;100316.53;5026930;28;20143;-76
2022/04/25 09:55:10;;;;;;;4.47;2.65;;;;;;;18.08;45.28;100282.13;5025706;28;20025;-75
2022/04/25 09:57:36;;;;;;;3.80;2.75;;;;;;;18.26;46.50;100391.28;5022800;28;20033;-75
2022/04/25 10:00:03;;;;;;;4.03;3.03;;;;;;;18.73;44.57;100333.00;5025521;28;20021;-75
2022/04/25 10:02:39;;;;;;;4.60;2.80;;;;;;;17.83;45.50;100166.06;5026675;28;20041;-75
2022/04/25 10:05:15;;;;;;;3.78;2.90;;;;;;;18.36;44.66;100259.19;5026977;28;20291;-74
2022/04/25 10:07:43;;;;;;;6.03;2.97;;;;;;;18.84;44.52;100295.44;5027033;28;20075;-74
2022/04/25 10:10:10;;;;;;;3.20;2.55;;;;;;;18.05;45.13;100212.38;5025420;28;20494;-74
2022/04/25 10:12:38;;;;;;;;;;;;;;;17.76;45.04;100150.94;5027064;28;20045;-74
2022/04/25 10:15:06;;;;;;;7.68;3.17;;;;;;;18.42;45.56;100298.81;5026674;28;19916;-75
2022/04/25 10:17:35;;;;;;;4.10;3.10;;;;;;;17.30;45.79;100123.38;5026166;28;20088;-75
2022/04/25 10:20:03;;;;;;;7.43;3.20;;;;;;;17.92;46.20;100288.94;5024274;28;20136;-76
2022/04/25 10:22:28;;;;;;;3.40;2.80;;;;;;;18.50;44.68;100290.41;5017708;28;20044;-75
2022/04/25 10:24:54;;;;;;;3.17;2.72;;;;;;;18.88;44.23;100319.09;5025816;28;20022;-75
2022/04/25 10:27:27;;;;;;;3.80;2.80;;;;;;;18.08;44.86;100219.19;5022123;28;20487;-74
2022/04/25 10:29:54;;;;;;;3.95;3.00;;;;;;;17.62;45.44;100151.09;5023743;28;20283;-75
2022/04/25 10:32:23;;;;;;;4.10;2.60;;;;;;;18.71;44.69;100323.47;5026230;28;20406;-75
2022/04/25 10:34:53;;;;;;;6.60;2.90;;;;;;;18.10;44.79;100215.22;5026470;28;20045;-75
2022/04/25 10:37:35;;;;;;;4.15;3.20;;;;;;;17.43;45.61;100163.72;5026519;28;20482;-75
2022/04/25 10:40:10;;;;;;;8.43;3.20;;;;;;;17.80;45.09;100192.66;5025025;28;20513;-75
2022/04/25 10:45:59;;;;;;;4.45;3.22;;;;;;;18.14;44.79;100226.38;5024907;28;20033;-74
2022/04/25 10:48:25;;;;;;;6.22;3.15;;;;;;;18.44;43.87;100229.16;5021474;28;20129;-75
2022/04/25 10:51:10;;;;;;;;;;;;;;;18.94;43.67;100296.56;5024990;28;20025;-75
2022/04/25 10:54:01;;;;;;;4.68;4.28;;;;;;;19.24;43.89;100355.25;5023012;28;19913;-76
2022/04/25 10:56:28;;;;;;;5.18;3.70;;;;;;;18.62;42.56;100122.88;5020902;28;20042;-76
2022/04/25 10:59:22;;;;;;;4.22;3.53;;;;;;;18.59;43.99;100227.91;5023549;28;20432;-76
2022/04/25 11:01:48;;;;;;;5.38;4.15;;;;;;;18.08;41.97;99979.63;5025661;28;20044;-76
2022/04/25 11:04:15;;;;;;;8.27;4.57;;;;;;;18.11;42.19;100011.56;5025859;28;20025;-75
2022/04/25 11:06:41;;;;;;;4.38;2.80;;;;;;;18.56;43.78;100221.91;5022351;28;20045;-76
2022/04/25 11:09:06;;;;;;;3.70;3.08;;;;;;;18.38;44.36;100213.84;5008021;28;20402;-76
2022/04/25 11:11:49;;;;;;;4.97;3.10;;;;;;;18.73;43.51;100223.97;5024027;28;20065;-76
2022/04/25 11:14:16;;;;;;;7.28;3.17;;;;;;;19.12;42.71;100243.44;5008037;28;20489;-76
2022/04/25 11:16:42;;;;;;;4.20;2.95;;;;;;;19.60;41.91;100286.63;5024367;28;20548;-76
2022/04/25 11:19:22;;;;;;;5.78;2.97;;;;;;;19.19;42.34;100228.75;5025338;28;20128;-76
2022/04/25 11:21:55;;;;;;;4.50;3.53;;;;;;;19.49;41.73;100218.94;5028532;28;20038;-76
2022/04/25 11:24:33;;;;;;;5.53;3.45;;;;;;;19.66;41.39;100190.09;5024209;28;20041;-76
2022/04/25 11:27:01;;;;;;;6.03;4.18;;;;;;;19.57;41.72;100218.56;5025332;28;20083;-76
2022/04/25 11:29:27;;;;;;;5.13;3.17;;;;;;;19.92;41.04;100212.34;5020691;28;20029;-76
2022/04/25 11:32:24;;;;;;;4.78;3.17;;;;;;;18.94;41.19;100049.56;5024311;28;20514;-76
2022/04/25 11:34:50;;;;;;;4.90;2.97;;;;;;;19.39;41.09;100147.25;5025204;28;20037;-76
2022/04/25 11:37:18;;;;;;;4.35;3.00;;;;;;;19.57;41.63;100213.16;5018358;28;20025;-76
2022/04/25 11:39:55;;;;;;;5.70;3.53;;;;;;;19.18;41.13;100061.25;5025242;28;20140;-76
2022/04/25 11:42:20;;;;;;;5.20;2.75;;;;;;;19.70;41.00;100169.63;5007691;28;20490;-75
2022/04/25 11:44:45;;;;;;;6.20;3.60;;;;;;;20.18;39.91;100176.63;5025653;28;20017;-76
2022/04/25 11:47:12;;;;;;;4.20;3.53;;;;;;;20.22;40.06;100175.06;5007974;28;20049;-77
2022/04/25 11:49:38;;;;;;;3.45;2.72;;;;;;;19.80;41.37;100213.19;5023321;28;20482;-76
2022/04/25 11:52:12;;;;;;;;;;;;;;;19.12;41.48;100040.53;5005323;28;20499;-77
2022/04/25 11:54:40;;;;;;;4.88;2.95;;;;;;;19.40;41.61;100200.31;5025326;28;19913;-77
2022/04/25 11:57:06;;;;;;;4.15;3.03;;;;;;;19.95;40.50;100185.63;5024126;28;20030;-76